Argyle, Missouri
Current Conditions -  °F | °C
As of 1:08 PM on Saturday 25 Oct 2014 (Local Time) from KVIH Reporting Station
Haze Haze  
Wind Chill: 76°   Ceiling: Unl
Heat Index: 76°   Visibility: 5mi
Dew Point: 63°   Wind: 0mph
Humidity: 64%   Direction: NA
Pressure: 30.05"   Gusts: NA
Location:  38.29°N, 92.03°W
Report Text: KVIH 251808Z AUTO 00000KT 5SM HZ CLR 24/17 A3005 RMK AO2 T02440172
Loading
Personal Weather Stations






























Interactive Weather Map
Tropical Storm Tracking
New forecast layout! Learn more

10-Day Weather Forecast

Advertisements
Track Severe Weather on mobile